Laemchabang, Thailand

3:48 AM ICT on July 23, 2014 (GMT +0700)
Pattaya (ICHONBUR6) Elev 141 ft | 12.93 °N, 100.91 °E | Change Station

Current weather conditions updated 2 minutes ago

Mostly Cloudy
Mostly Cloudy
82.8 °F
Feels Like 91 °F
N
3.0
Wind Variable Wind from SW
Gusts 4.0 mph

Today is forecast to be Cooler than yesterday. Morning thunderstorms.

Today
High -- | Low -- °F
--% Chance of Precip.
Yesterday
High -- | Low -- °F
Precip. -- in
5:59 AM 6:46 PM
Waning Crescent, 15% visible
Pressure 29.71 in
Visibility 6.2 miles
Clouds Few 2500 ft
Scattered Clouds 12000 ft
Mostly Cloudy 30000 ft
Heat Index 91 °F
Dew Point 76 °F
Humidity 80%
Rainfall 0.00 in
Snow Depth Not available.
UV 0 out of 12
Pollen Not available.
Air Quality Not available.
Flu Activity Not available.
METAR VTBS 222030Z 26006KT 9999 FEW025 SCT120 BKN300 28/20 Q1006 NOSIG

More Conditions Fewer Conditions

Pressure 29.71 in
Visibility 6.2 miles
Clouds Few 2500 ft
Scattered Clouds 12000 ft
Mostly Cloudy 30000 ft
Heat Index 91 °F
Dew Point 76 °F
Humidity 80%
Rainfall 0.00 in
Snow Depth Not available.
UV 0 out of 12
Pollen Not available.
Air Quality Not available.
Flu Activity Not available.
METAR VTBS 222030Z 26006KT 9999 FEW025 SCT120 BKN300 28/20 Q1006 NOSIG

More Conditions Fewer Conditions

10-Day Weather Forecast

Almanac

Astronomy

Jul. 23, 2014 Rise Set
Actual Time 5:59 AM ICT 6:46 PM ICT
Civil Twilight 5:36 AM ICT 7:08 PM ICT
Nautical Twilight 5:10 AM ICT 7:35 PM ICT
Astronomical Twilight 4:42 AM ICT 8:02 PM ICT
Moon 2:49 AM ICT (7/23) 3:51 PM ICT (7/23)
Length of Visible Light 13h 31m
Length of Day
12h 46m
Tomorrow will be 0m 27s shorter.
Waning Crescent, 15% of the Moon is Illuminated
Jul 22
Waning Crescent
Jul 26
New
Aug 3
First Quarter
Aug 10
Full
Aug 17
Last Quarter

Yesterday's Extremes

Country Highs Country Lows

Community

WunderPhotos

Upload Photos

1,736,350 photos uploaded!

Nearby

Snow Depth

Not available.

Earthquake Activity

City Distance Mag. Time & Date
No recent earthquake activity has been reported nearby.
Minimum magnitude displayed is 2.5.

Coastal Water Temperatures

Place Temperature
No Stations Reporting

Nearby Weather Stations

Station Location Temp. Heat Index Dew Point Humidity Wind Precip. Elev Updated Type
Pattaya, Pattaya 82.8 °F 91 °F 76 °F 80% SW  at  3.0 mph 0.00 in / hr 141 ft 3:45 AM ICT Normal
Jomtien, Jomtien 83.8 °F 84 °F 62 °F 47% North  at  0.0 mph 0.00 in / hr 115 ft 3:40 AM ICT Normal

Show More Stations Show Fewer Stations